KDED/DED METAR and TAF weather

Enter ICAO airport designator
Station Type Date Time Source
KDED METAR 2019/12/09 05:55 UTC NOAA

KDED 090555Z AUTO 00000KT 10SM CLR 14/14 A3015 RMK AO2


Station Type Date Time Source
KDED Decoded METAR 2019/12/09 05:55 UTC NOAA

Station name not available
Dec 09, 2019 - 12:55 AM EST / 2019.12.09 0555 UTC
Wind: Calm:0
Visibility: 10 mile(s):0
Sky conditions: clear
Temperature: 57 F (14 C)
Dew Point: 57 F (14 C)
Relative Humidity: 100%
Pressure (altimeter): 30.15 in. Hg (1020 hPa)
ob: KDED 090555Z AUTO 00000KT 10SM CLR 14/14 A3015 RMK AO2
cycle: 6

Station Type Date Time Source
KDED TAF UTC NOAA

Error!

Example: see airport list